Time;durP1;ratioP1;P1;durP2;ratioP2;P2;SDS_P1;SDS_P2;PMS_P1;PMS_P2;Temp;Humidity;BMP_temperature;BMP_pressure;BME280_temperature;BME280_humidity;BME280_pressure;Samples;Min_cycle;Max_cycle;Signal;HPM_P1;HPM_P2
2022/11/04 00:01:08;;;;;;;4.30;1.15;;;17.70;99.90;;;;;;4989394;28;20195;-74
2022/11/04 00:03:39;;;;;;;3.28;1.00;;;17.70;99.90;;;;;;4987285;28;20207;-73
2022/11/04 00:06:12;;;;;;;4.13;1.10;;;17.90;99.90;;;;;;4994516;28;20208;-73
2022/11/04 00:08:43;;;;;;;3.67;1.20;;;18.00;99.90;;;;;;4993496;28;20231;-72
2022/11/04 00:14:00;;;;;;;1.50;0.90;;;18.20;99.90;;;;;;4988644;28;20718;-71
2022/11/04 00:19:19;;;;;;;11.93;2.50;;;18.70;99.90;;;;;;4993280;28;20207;-73
2022/11/04 00:30:13;;;;;;;6.50;1.15;;;20.50;99.90;;;;;;4993783;28;20266;-73
2022/11/04 00:35:32;;;;;;;5.85;0.90;;;21.10;99.90;;;;;;4994344;28;20273;-71
2022/11/04 00:38:03;;;;;;;6.47;1.30;;;21.20;99.90;;;;;;4991662;28;20647;-71
2022/11/04 00:40:34;;;;;;;3.08;0.90;;;20.90;99.90;;;;;;4980949;28;20700;-71
2022/11/04 00:43:05;;;;;;;5.28;1.20;;;20.90;99.90;;;;;;4993841;28;20614;-71
2022/11/04 00:45:36;;;;;;;4.07;1.20;;;20.90;99.90;;;;;;4985835;28;20191;-74
2022/11/04 00:48:09;;;;;;;4.32;1.20;;;20.90;99.90;;;;;;4991585;28;20206;-73
2022/11/04 00:50:41;;;;;;;3.00;1.00;;;21.10;99.90;;;;;;4992480;28;20200;-74
2022/11/04 00:53:15;;;;;;;2.30;0.80;;;20.90;99.90;;;;;;4993679;28;20191;-73
2022/11/04 00:55:46;;;;;;;4.07;0.80;;;21.00;99.90;;;;;;4994077;28;20295;-74
2022/11/04 00:58:16;;;;;;;1.80;0.70;;;21.00;99.90;;;;;;4991056;28;20195;-72
2022/11/04 01:00:47;;;;;;;4.53;0.80;;;21.10;99.90;;;;;;4993643;28;20188;-74
2022/11/04 01:03:20;;;;;;;3.25;0.80;;;21.40;99.90;;;;;;4991721;28;20285;-74
2022/11/04 01:05:51;;;;;;;3.08;0.90;;;21.70;99.90;;;;;;4993176;28;22117;-74
2022/11/04 01:08:21;;;;;;;2.33;0.70;;;22.00;99.90;;;;;;4992657;28;20203;-72
2022/11/04 01:10:52;;;;;;;7.55;0.98;;;21.80;99.90;;;;;;4992164;28;20199;-74
2022/11/04 01:13:23;;;;;;;5.30;1.02;;;21.50;99.90;;;;;;4993039;28;20192;-71
2022/11/04 01:15:53;;;;;;;3.03;0.80;;;21.60;99.90;;;;;;4993608;28;20190;-74
2022/11/04 01:18:26;;;;;;;5.00;0.82;;;21.20;99.90;;;;;;4993679;28;20275;-73
2022/11/04 01:20:57;;;;;;;3.30;0.98;;;20.90;99.90;;;;;;4987935;28;20197;-72
2022/11/04 01:23:27;;;;;;;3.22;1.00;;;21.20;99.90;;;;;;4992297;28;20639;-72
2022/11/04 01:25:58;;;;;;;2.25;0.80;;;21.60;99.90;;;;;;4991991;28;20200;-70
2022/11/04 01:28:29;;;;;;;4.28;1.00;;;22.10;99.90;;;;;;4988739;28;20208;-76
2022/11/04 01:31:00;;;;;;;2.83;0.80;;;22.00;99.90;;;;;;4993882;28;20203;-70
2022/11/04 01:33:32;;;;;;;3.17;1.00;;;21.90;99.90;;;;;;4989773;28;20199;-72
2022/11/04 01:36:04;;;;;;;3.08;0.80;;;21.60;99.90;;;;;;4992480;28;20690;-71
2022/11/04 01:38:35;;;;;;;4.13;0.80;;;21.40;99.90;;;;;;4992464;28;20199;-73
2022/11/04 01:41:06;;;;;;;4.40;1.17;;;21.20;99.90;;;;;;4989245;28;20648;-74
2022/11/04 01:43:50;;;;;;;3.80;0.90;;;21.00;99.90;;;;;;4993524;28;20199;-72
2022/11/04 01:46:31;;;;;;;4.22;1.13;;;20.90;99.90;;;;;;4993203;28;20195;-72
2022/11/04 01:49:10;;;;;;;2.33;0.80;;;20.80;99.90;;;;;;4990912;28;20195;-72
2022/11/04 01:51:44;;;;;;;4.50;1.10;;;20.70;99.90;;;;;;4991103;28;20205;-70
2022/11/04 01:54:15;;;;;;;3.67;1.02;;;20.60;99.90;;;;;;4992779;28;20192;-72
2022/11/04 01:56:48;;;;;;;3.33;0.88;;;20.40;99.90;;;;;;4991919;28;20699;-73
2022/11/04 01:59:22;;;;;;;5.13;0.98;;;20.50;99.90;;;;;;4992655;28;20218;-72
2022/11/04 02:01:53;;;;;;;4.50;1.00;;;20.60;99.90;;;;;;4991899;28;20193;-71
2022/11/04 02:04:29;;;;;;;3.60;0.90;;;20.60;99.90;;;;;;4992717;28;20183;-73
2022/11/04 02:07:01;;;;;;;4.97;1.08;;;20.50;99.90;;;;;;4986559;28;20409;-73
2022/11/04 02:09:33;;;;;;;4.15;0.98;;;20.50;99.90;;;;;;4989962;28;20195;-75
2022/11/04 02:14:52;;;;;;;3.08;0.80;;;20.50;99.90;;;;;;4996152;28;20195;-75
2022/11/04 02:17:39;;;;;;;5.13;0.80;;;20.50;99.90;;;;;;4996206;28;20218;-73
2022/11/04 02:20:39;;;;;;;3.05;0.90;;;20.60;99.90;;;;;;4994687;28;20203;-72
2022/11/04 02:23:47;;;;;;;2.47;0.88;;;20.60;99.90;;;;;;4994378;28;20205;-74
2022/11/04 02:26:43;;;;;;;3.90;1.00;;;20.60;99.90;;;;;;4994068;28;20305;-70
2022/11/04 02:29:37;;;;;;;4.63;1.17;;;20.60;99.90;;;;;;4994266;28;20196;-78
2022/11/04 02:32:18;;;;;;;4.60;1.20;;;20.50;99.90;;;;;;4995523;28;20202;-73
2022/11/04 02:35:00;;;;;;;7.15;1.15;;;20.50;99.90;;;;;;4995746;28;20187;-74
2022/11/04 02:37:38;;;;;;;6.15;1.13;;;20.50;99.90;;;;;;4995718;28;20242;-72
2022/11/04 02:40:20;;;;;;;4.57;1.23;;;20.40;99.90;;;;;;4995073;28;20334;-71
2022/11/04 02:42:59;;;;;;;3.78;1.08;;;20.20;99.90;;;;;;4993564;28;20552;-73
2022/11/04 02:45:39;;;;;;;3.67;1.10;;;20.20;99.90;;;;;;4992382;28;20672;-72
2022/11/04 02:48:16;;;;;;;7.22;1.13;;;20.20;99.90;;;;;;4989284;28;20199;-73
2022/11/04 02:50:52;;;;;;;3.78;0.85;;;20.30;99.90;;;;;;4995877;28;20284;-74
2022/11/04 02:53:31;;;;;;;6.22;1.20;;;20.30;99.90;;;;;;4995801;28;20199;-75
2022/11/04 02:56:03;;;;;;;5.97;1.05;;;20.40;99.90;;;;;;4992717;28;20198;-71
2022/11/04 02:58:39;;;;;;;2.55;0.95;;;20.30;99.90;;;;;;4993959;28;20218;-72
2022/11/04 03:01:16;;;;;;;8.50;1.60;;;20.20;99.90;;;;;;4993837;28;20200;-75
2022/11/04 03:03:53;;;;;;;4.82;1.00;;;20.10;99.90;;;;;;4992501;28;20237;-75
2022/11/04 03:06:27;;;;;;;4.72;1.00;;;20.10;99.90;;;;;;4995416;28;20651;-76
2022/11/04 03:08:59;;;;;;;2.33;0.90;;;20.10;99.90;;;;;;4992778;28;20196;-74
2022/11/04 03:11:32;;;;;;;2.45;0.82;;;20.20;99.90;;;;;;4992761;28;20651;-73
2022/11/04 03:14:06;;;;;;;3.65;0.85;;;20.20;99.90;;;;;;4992381;28;20249;-74
2022/11/04 03:16:41;;;;;;;3.53;0.80;;;20.10;99.90;;;;;;4990875;28;20207;-74
2022/11/04 03:19:16;;;;;;;3.28;0.85;;;20.20;99.90;;;;;;4994952;28;20628;-70
2022/11/04 03:21:52;;;;;;;4.72;1.08;;;20.30;99.90;;;;;;4994129;28;20199;-71
2022/11/04 03:24:23;;;;;;;2.80;1.00;;;20.30;99.90;;;;;;4994999;28;20254;-73
2022/11/04 03:27:00;;;;;;;4.05;1.00;;;20.30;99.90;;;;;;4994670;28;20188;-69
2022/11/04 03:29:35;;;;;;;4.68;1.10;;;20.30;99.90;;;;;;4994075;28;20200;-72
2022/11/04 03:32:17;;;;;;;3.38;0.98;;;20.30;99.90;;;;;;4991986;28;20193;-75
2022/11/04 03:34:48;;;;;;;3.35;1.00;;;20.20;99.90;;;;;;4992865;28;20196;-71
2022/11/04 03:37:19;;;;;;;7.00;1.00;;;20.10;99.90;;;;;;4990377;28;20230;-72
2022/11/04 03:39:50;;;;;;;3.30;1.00;;;20.00;99.90;;;;;;4994463;28;20707;-73
2022/11/04 03:42:23;;;;;;;4.70;1.05;;;20.20;99.90;;;;;;4994972;28;20195;-72
2022/11/04 03:44:55;;;;;;;4.38;1.02;;;20.50;99.90;;;;;;4994634;28;20205;-74
2022/11/04 03:47:31;;;;;;;3.47;0.80;;;20.70;99.90;;;;;;4991171;28;20199;-73
2022/11/04 03:50:08;;;;;;;3.03;0.90;;;20.80;99.90;;;;;;4992154;28;20604;-73
2022/11/04 03:52:39;;;;;;;6.18;1.02;;;20.90;99.90;;;;;;4984740;28;20206;-72
2022/11/04 03:55:13;;;;;;;3.10;0.95;;;20.80;99.90;;;;;;4991182;28;20603;-75
2022/11/04 03:57:52;;;;;;;3.63;0.90;;;20.60;99.90;;;;;;4989967;28;20256;-70
2022/11/04 04:00:24;;;;;;;2.63;0.90;;;20.50;99.90;;;;;;4993212;28;20207;-74
2022/11/04 04:03:08;;;;;;;2.05;0.80;;;20.40;99.90;;;;;;4993154;28;20202;-76
2022/11/04 04:05:46;;;;;;;5.03;0.98;;;20.30;99.90;;;;;;4992964;28;20274;-74
2022/11/04 04:08:26;;;;;;;3.55;0.80;;;20.20;99.90;;;;;;4991485;28;20279;-75
2022/11/04 04:11:07;;;;;;;4.47;0.98;;;20.20;99.90;;;;;;4993807;28;20549;-75
2022/11/04 04:13:45;;;;;;;4.90;1.00;;;20.20;99.90;;;;;;4990448;28;20600;-75
2022/11/04 04:16:21;;;;;;;5.70;1.02;;;20.10;99.90;;;;;;4993203;28;20561;-74
2022/11/04 04:18:56;;;;;;;4.32;0.80;;;20.10;99.90;;;;;;4993049;28;20219;-75
2022/11/04 04:21:33;;;;;;;3.47;0.98;;;20.10;99.90;;;;;;4992044;28;20202;-75
2022/11/04 04:29:45;;;;;;;5.03;1.10;;;20.20;99.90;;;;;;4985275;28;20292;-74
2022/11/04 04:32:17;;;;;;;4.22;0.80;;;20.20;99.90;;;;;;4988667;28;20690;-74
2022/11/04 04:34:50;;;;;;;6.05;0.95;;;20.30;99.90;;;;;;4991664;28;20200;-74
2022/11/04 04:37:43;;;;;;;4.50;0.80;;;20.30;99.90;;;;;;4992328;28;20742;-71
2022/11/04 04:45:54;;;;;;;3.42;0.70;;;20.10;99.90;;;;;;4987433;28;20269;-74
2022/11/04 04:48:25;;;;;;;5.95;1.05;;;20.00;99.90;;;;;;4992657;28;20210;-76
2022/11/04 04:51:01;;;;;;;5.38;0.93;;;19.90;99.90;;;;;;4990917;28;20211;-75
2022/11/04 04:53:31;;;;;;;4.32;0.98;;;19.90;99.90;;;;;;4992120;28;20203;-75
2022/11/04 04:56:03;;;;;;;3.40;0.90;;;20.00;99.90;;;;;;4992461;28;20202;-77
2022/11/04 04:58:33;;;;;;;2.58;1.00;;;20.10;99.90;;;;;;4990450;28;20215;-76
2022/11/04 05:01:05;;;;;;;4.57;0.80;;;20.30;99.90;;;;;;4985190;28;20207;-75
2022/11/04 05:03:36;;;;;;;3.17;0.80;;;20.30;99.90;;;;;;4992601;28;20219;-75
2022/11/04 05:06:09;;;;;;;3.80;0.90;;;20.20;99.90;;;;;;4991257;28;20200;-71
2022/11/04 05:08:39;;;;;;;2.58;0.85;;;20.00;99.90;;;;;;4986332;28;20687;-75
2022/11/04 05:11:10;;;;;;;3.58;1.10;;;19.90;99.90;;;;;;4991202;28;20203;-76
2022/11/04 05:13:41;;;;;;;6.30;1.13;;;19.70;99.90;;;;;;4991061;28;20210;-72
2022/11/04 05:16:13;;;;;;;2.90;0.93;;;19.60;99.90;;;;;;4992148;28;20214;-74
2022/11/04 05:18:43;;;;;;;3.20;1.05;;;19.60;99.90;;;;;;4991539;28;20224;-72
2022/11/04 05:21:18;;;;;;;4.43;1.08;;;19.50;99.90;;;;;;4991841;28;20279;-74
2022/11/04 05:23:48;;;;;;;4.80;1.75;;;19.40;99.90;;;;;;4984718;28;20183;-74
2022/11/04 05:26:20;;;;;;;3.67;0.85;;;19.40;99.90;;;;;;4992508;28;20197;-74
2022/11/04 05:28:50;;;;;;;3.47;0.75;;;19.30;99.90;;;;;;4992418;28;20195;-72
2022/11/04 05:31:22;;;;;;;4.05;0.82;;;19.50;99.90;;;;;;4992956;28;20202;-73
2022/11/04 05:33:52;;;;;;;5.35;1.05;;;19.60;99.90;;;;;;4992773;28;20530;-71
2022/11/04 05:36:25;;;;;;;3.10;0.90;;;19.70;99.90;;;;;;4992536;28;20232;-73
2022/11/04 05:38:56;;;;;;;2.97;0.70;;;19.70;99.90;;;;;;4992189;28;20243;-71
2022/11/04 05:41:27;;;;;;;4.22;1.10;;;19.80;99.90;;;;;;4992441;28;20191;-75
2022/11/04 05:43:59;;;;;;;4.47;0.82;;;19.80;99.90;;;;;;4992232;28;20183;-73
2022/11/04 05:46:30;;;;;;;2.25;0.63;;;19.70;99.90;;;;;;4990108;28;20194;-69
2022/11/04 05:49:01;;;;;;;6.45;0.80;;;19.70;99.90;;;;;;4992771;28;20188;-77
2022/11/04 05:51:33;;;;;;;3.17;1.05;;;19.60;99.90;;;;;;4990126;28;20195;-73
2022/11/04 05:54:04;;;;;;;3.92;0.80;;;19.40;99.90;;;;;;4992881;28;20553;-76
2022/11/04 05:56:35;;;;;;;3.40;0.80;;;19.30;99.90;;;;;;4992087;28;20194;-75
2022/11/04 05:59:05;;;;;;;6.40;1.38;;;19.10;99.90;;;;;;4992847;28;20241;-75
2022/11/04 06:01:38;;;;;;;3.42;1.15;;;19.10;99.90;;;;;;4991982;28;20187;-77
2022/11/04 06:04:13;;;;;;;3.45;1.00;;;19.20;99.90;;;;;;4990151;28;20538;-75
2022/11/04 06:06:45;;;;;;;4.28;1.20;;;19.20;99.90;;;;;;4988554;28;20274;-75
2022/11/04 06:09:16;;;;;;;5.35;1.00;;;19.20;99.90;;;;;;4988874;28;20204;-74
2022/11/04 06:11:47;;;;;;;4.53;0.98;;;19.10;99.90;;;;;;4985992;28;20884;-74
2022/11/04 06:14:18;;;;;;;3.05;1.10;;;19.00;99.90;;;;;;4989363;28;20199;-73
2022/11/04 06:16:48;;;;;;;3.15;0.73;;;19.00;99.90;;;;;;4988914;28;20202;-75
2022/11/04 06:19:20;;;;;;;4.07;0.82;;;19.00;99.90;;;;;;4991993;28;20219;-75
2022/11/04 06:21:52;;;;;;;6.50;1.02;;;19.00;99.90;;;;;;4991105;28;20552;-73
2022/11/04 06:24:23;;;;;;;2.38;0.80;;;19.00;99.90;;;;;;4989606;28;20198;-74
2022/11/04 06:26:54;;;;;;;3.40;1.10;;;19.10;99.90;;;;;;4988020;28;20230;-71
2022/11/04 06:29:25;;;;;;;4.95;0.88;;;19.10;99.90;;;;;;4992287;28;20188;-74
2022/11/04 06:31:55;;;;;;;2.33;0.80;;;19.20;99.90;;;;;;4988514;28;20651;-73
2022/11/04 06:34:26;;;;;;;3.40;1.00;;;19.20;99.90;;;;;;4985581;28;20193;-73
2022/11/04 06:36:59;;;;;;;5.03;1.05;;;19.20;99.90;;;;;;4991875;28;20192;-70
2022/11/04 06:39:30;;;;;;;3.63;0.95;;;19.20;99.90;;;;;;4989841;28;20235;-73
2022/11/04 06:42:00;;;;;;;4.20;0.98;;;19.20;99.90;;;;;;4986127;28;20200;-71
2022/11/04 06:44:32;;;;;;;6.85;1.55;;;19.20;99.90;;;;;;4983490;28;20199;-70
2022/11/04 06:47:03;;;;;;;3.40;0.82;;;19.20;99.90;;;;;;4989256;28;20203;-71
2022/11/04 06:49:34;;;;;;;4.32;1.10;;;19.10;99.90;;;;;;4986808;28;20203;-74
2022/11/04 06:52:07;;;;;;;2.40;0.98;;;19.00;99.90;;;;;;4989275;28;20207;-72
2022/11/04 06:54:37;;;;;;;2.63;1.30;;;19.00;99.90;;;;;;4991716;28;20278;-73
2022/11/04 06:57:08;;;;;;;5.70;1.40;;;19.00;99.90;;;;;;4989782;28;20209;-74
2022/11/04 06:59:39;;;;;;;3.75;0.90;;;19.00;99.90;;;;;;4993059;28;20218;-71
2022/11/04 07:02:11;;;;;;;5.10;0.95;;;19.00;99.90;;;;;;4994135;28;20203;-71
2022/11/04 07:04:42;;;;;;;4.45;1.02;;;19.00;99.90;;;;;;4993802;28;20202;-74
2022/11/04 07:07:15;;;;;;;3.10;0.82;;;19.00;99.90;;;;;;4991473;28;20296;-70
2022/11/04 07:09:46;;;;;;;3.63;0.70;;;19.00;99.90;;;;;;4993949;28;20192;-71
2022/11/04 07:12:16;;;;;;;2.10;0.88;;;18.90;99.90;;;;;;4991893;28;20228;-74
2022/11/04 07:14:47;;;;;;;8.07;1.42;;;18.90;99.90;;;;;;4983884;28;20207;-71
2022/11/04 07:17:18;;;;;;;3.50;1.20;;;18.80;99.90;;;;;;4992799;28;20556;-71
2022/11/04 07:19:49;;;;;;;12.38;6.18;;;18.80;99.90;;;;;;4991045;28;20219;-71
2022/11/04 07:22:21;;;;;;;3.13;1.10;;;18.70;99.90;;;;;;4992034;28;20195;-70
2022/11/04 07:24:53;;;;;;;2.70;1.00;;;18.70;99.90;;;;;;4994330;28;20184;-70
2022/11/04 07:27:23;;;;;;;4.35;1.52;;;18.60;99.90;;;;;;4994687;28;20279;-71
2022/11/04 07:29:57;;;;;;;4.55;1.00;;;18.60;99.90;;;;;;4993188;28;20198;-70
2022/11/04 07:32:27;;;;;;;3.42;1.10;;;18.60;99.90;;;;;;4989530;28;20195;-72
2022/11/04 07:34:58;;;;;;;5.72;1.27;;;18.60;99.90;;;;;;4993004;28;20258;-70
2022/11/04 07:37:31;;;;;;;4.85;1.25;;;18.60;99.90;;;;;;4993996;28;20202;-71
2022/11/04 07:40:01;;;;;;;4.45;0.93;;;18.50;99.90;;;;;;4990470;28;20235;-72
2022/11/04 07:42:32;;;;;;;4.25;1.13;;;18.50;99.90;;;;;;4992352;28;20196;-72
2022/11/04 07:45:03;;;;;;;7.35;1.17;;;18.50;99.90;;;;;;4994356;28;20609;-70
2022/11/04 07:47:34;;;;;;;2.40;1.00;;;18.50;99.90;;;;;;4993826;28;20670;-75
2022/11/04 07:50:05;;;;;;;5.28;1.20;;;18.50;99.90;;;;;;4990805;28;20188;-74
2022/11/04 07:52:37;;;;;;;6.65;1.20;;;18.40;99.90;;;;;;4990437;28;20201;-72
2022/11/04 07:55:09;;;;;;;4.15;1.80;;;18.40;99.90;;;;;;4991858;28;20804;-71
2022/11/04 07:57:40;;;;;;;4.93;1.55;;;18.40;99.90;;;;;;4984794;28;20192;-73
2022/11/04 08:00:13;;;;;;;8.02;1.70;;;18.40;99.90;;;;;;4991557;28;20249;-72
2022/11/04 08:02:45;;;;;;;5.00;1.55;;;18.40;99.90;;;;;;4989460;28;20192;-71
2022/11/04 08:05:16;;;;;;;5.15;1.50;;;18.30;99.90;;;;;;4992585;28;20203;-71
2022/11/04 08:07:49;;;;;;;5.47;1.35;;;18.30;99.90;;;;;;4993970;28;20191;-72
2022/11/04 08:10:20;;;;;;;6.25;1.40;;;18.20;99.90;;;;;;4994746;28;20200;-73
2022/11/04 08:12:52;;;;;;;3.75;1.10;;;18.20;99.90;;;;;;4993716;28;20222;-71
2022/11/04 08:15:23;;;;;;;3.90;1.10;;;18.10;99.90;;;;;;4993212;28;20195;-72
2022/11/04 08:17:54;;;;;;;4.22;1.30;;;18.00;99.90;;;;;;4989686;28;20250;-71
2022/11/04 08:20:24;;;;;;;8.27;1.60;;;18.00;99.90;;;;;;4991384;28;20199;-71
2022/11/04 08:22:57;;;;;;;5.10;1.55;;;17.90;99.90;;;;;;4992140;28;20227;-71
2022/11/04 08:25:28;;;;;;;5.35;2.13;;;17.80;99.90;;;;;;4992584;28;20203;-72
2022/11/04 08:27:59;;;;;;;5.78;1.55;;;17.80;99.90;;;;;;4991696;28;20283;-71
2022/11/04 08:30:30;;;;;;;6.53;1.55;;;17.70;99.90;;;;;;4989982;28;20199;-71
2022/11/04 08:33:04;;;;;;;5.57;1.60;;;17.70;99.90;;;;;;4988210;28;20192;-72
2022/11/04 08:35:36;;;;;;;4.13;0.98;;;17.70;99.90;;;;;;4990607;28;20358;-70
2022/11/04 08:38:08;;;;;;;5.13;1.20;;;17.70;99.90;;;;;;4986953;28;20226;-71
2022/11/04 08:40:39;;;;;;;5.70;1.55;;;17.60;99.90;;;;;;4990476;28;20246;-71
2022/11/04 08:43:11;;;;;;;5.97;1.65;;;17.60;99.90;;;;;;4988311;28;21169;-71
2022/11/04 08:45:47;;;;;;;4.88;1.85;;;17.60;99.90;;;;;;4991836;28;20200;-72
2022/11/04 08:48:17;;;;;;;4.32;1.77;;;17.60;99.90;;;;;;4991818;28;20207;-73
2022/11/04 08:50:52;;;;;;;6.93;1.25;;;17.50;99.90;;;;;;4992091;28;20210;-73
2022/11/04 08:53:24;;;;;;;5.70;1.25;;;17.50;99.90;;;;;;4989082;28;20576;-71
2022/11/04 08:55:55;;;;;;;7.43;1.52;;;17.50;99.90;;;;;;4985464;28;20219;-74
2022/11/04 08:58:26;;;;;;;5.75;1.45;;;17.50;99.90;;;;;;4990587;28;20243;-71
2022/11/04 09:00:58;;;;;;;7.35;1.55;;;17.40;99.90;;;;;;4989612;28;20565;-72
2022/11/04 09:03:28;;;;;;;5.32;1.30;;;17.40;99.90;;;;;;4993195;28;20747;-71
2022/11/04 09:06:00;;;;;;;4.35;1.35;;;17.40;99.90;;;;;;4984604;28;20200;-71
2022/11/04 09:08:33;;;;;;;6.78;1.17;;;17.40;99.90;;;;;;4993386;28;20214;-74
2022/11/04 09:11:08;;;;;;;5.03;1.00;;;17.40;99.90;;;;;;4988059;28;20674;-71
2022/11/04 09:13:39;;;;;;;5.30;1.10;;;17.30;99.90;;;;;;4991770;28;20234;-71
2022/11/04 09:16:12;;;;;;;4.35;1.17;;;17.30;99.90;;;;;;4985221;28;20286;-75
2022/11/04 09:18:43;;;;;;;4.65;1.10;;;17.30;99.90;;;;;;4990838;28;20238;-71
2022/11/04 09:21:14;;;;;;;4.78;1.50;;;17.30;99.90;;;;;;4994210;28;20198;-71
2022/11/04 09:23:47;;;;;;;5.93;1.42;;;17.30;99.90;;;;;;4986438;28;20200;-72
2022/11/04 09:26:18;;;;;;;3.92;1.27;;;17.20;99.90;;;;;;4990978;28;20206;-70
2022/11/04 09:28:49;;;;;;;4.63;1.30;;;17.20;99.90;;;;;;4990517;28;20206;-71
2022/11/04 09:31:21;;;;;;;7.25;1.90;;;17.20;99.90;;;;;;4990820;28;20207;-71
2022/11/04 09:33:53;;;;;;;4.97;1.40;;;17.20;99.90;;;;;;4987432;28;20247;-71
2022/11/04 09:36:24;;;;;;;3.40;1.40;;;17.20;99.90;;;;;;4993332;28;20227;-71
2022/11/04 09:38:57;;;;;;;6.75;1.40;;;17.20;99.90;;;;;;4988306;28;20649;-71
2022/11/04 09:41:43;;;;;;;4.32;1.10;;;17.20;99.90;;;;;;4988709;28;20199;-71
2022/11/04 09:44:26;;;;;;;4.60;1.50;;;17.10;99.90;;;;;;4988533;28;20204;-70
2022/11/04 09:47:01;;;;;;;5.85;1.30;;;17.10;99.90;;;;;;4990601;28;20213;-71
2022/11/04 09:49:36;;;;;;;4.15;1.42;;;17.10;99.90;;;;;;4984897;28;20195;-72
2022/11/04 09:52:15;;;;;;;5.47;1.95;;;17.10;99.90;;;;;;4991177;28;20290;-72
2022/11/04 09:54:54;;;;;;;6.70;1.40;;;17.10;99.90;;;;;;4990187;28;20283;-72
2022/11/04 09:57:25;;;;;;;4.30;1.40;;;17.10;99.90;;;;;;4990187;28;20203;-72
2022/11/04 09:59:56;;;;;;;7.65;1.80;;;17.10;99.90;;;;;;4991097;28;20223;-71
2022/11/04 10:02:58;;;;;;;6.18;1.40;;;17.10;99.90;;;;;;4986319;28;20196;-72
2022/11/04 10:05:48;;;;;;;6.63;1.98;;;17.10;99.90;;;;;;4990429;28;20204;-72
2022/11/04 10:08:53;;;;;;;2.30;1.10;;;17.10;99.90;;;;;;4991885;28;20199;-71
2022/11/04 10:11:33;;;;;;;3.08;1.05;;;17.10;99.90;;;;;;4981850;28;20203;-74
2022/11/04 10:14:22;;;;;;;6.30;1.40;;;17.10;99.90;;;;;;4992818;28;20199;-73
2022/11/04 10:17:03;;;;;;;5.25;1.10;;;17.10;99.90;;;;;;4990006;28;20290;-72
2022/11/04 10:19:48;;;;;;;6.20;1.23;;;17.00;99.90;;;;;;4992894;28;20297;-71
2022/11/04 10:22:33;;;;;;;3.28;1.20;;;17.00;99.90;;;;;;4991740;28;20204;-71
2022/11/04 10:25:15;;;;;;;5.57;1.30;;;17.00;99.90;;;;;;4984410;28;20236;-71
2022/11/04 10:27:51;;;;;;;8.00;1.58;;;17.00;99.90;;;;;;4989120;28;20199;-71
2022/11/04 10:30:25;;;;;;;5.55;1.20;;;17.00;99.90;;;;;;4986855;28;20238;-72
2022/11/04 10:33:03;;;;;;;4.03;1.10;;;17.00;99.90;;;;;;4996621;28;20198;-71
2022/11/04 10:35:42;;;;;;;4.75;1.10;;;17.00;99.90;;;;;;4994627;28;20270;-71
2022/11/04 10:38:24;;;;;;;7.22;1.38;;;17.00;99.90;;;;;;4996340;28;20680;-71
2022/11/04 10:40:56;;;;;;;3.78;1.10;;;16.90;99.90;;;;;;4994929;28;20220;-71
2022/11/04 10:43:34;;;;;;;4.78;1.38;;;17.00;99.90;;;;;;4988358;28;20251;-71
2022/11/04 10:46:18;;;;;;;6.97;1.30;;;16.90;99.90;;;;;;4996282;28;20234;-72
2022/11/04 10:48:59;;;;;;;7.22;1.60;;;16.90;99.90;;;;;;4995222;28;20279;-71
2022/11/04 10:51:30;;;;;;;6.70;1.20;;;16.90;99.90;;;;;;4987384;28;20654;-72
2022/11/04 10:54:03;;;;;;;5.03;1.20;;;16.90;99.90;;;;;;4995875;28;20207;-70
2022/11/04 10:56:41;;;;;;;5.47;1.00;;;16.90;99.90;;;;;;4996388;28;20274;-71
2022/11/04 10:59:24;;;;;;;3.15;1.25;;;16.80;99.90;;;;;;4993712;28;20219;-71
2022/11/04 11:01:57;;;;;;;4.53;1.13;;;16.80;99.90;;;;;;4994758;28;20204;-70
2022/11/04 11:04:30;;;;;;;3.20;1.08;;;16.80;99.90;;;;;;4996555;28;20685;-70
2022/11/04 11:07:03;;;;;;;2.15;0.98;;;16.80;99.90;;;;;;4994384;28;20195;-71
2022/11/04 11:09:36;;;;;;;3.58;1.10;;;16.70;99.90;;;;;;4987882;28;20222;-71
2022/11/04 11:12:22;;;;;;;3.83;1.13;;;16.80;99.90;;;;;;4994864;28;20647;-72
2022/11/04 11:14:55;;;;;;;4.63;1.10;;;16.70;99.90;;;;;;4997356;28;20210;-70
2022/11/04 11:17:37;;;;;;;5.43;1.27;;;16.70;99.90;;;;;;4990245;28;20286;-73
2022/11/04 11:20:22;;;;;;;2.78;1.20;;;16.70;99.90;;;;;;4988215;28;20215;-71
2022/11/04 11:22:55;;;;;;;6.57;1.33;;;16.70;99.90;;;;;;4993697;28;20194;-71
2022/11/04 11:25:29;;;;;;;4.15;1.00;;;16.70;99.90;;;;;;4994980;28;20206;-71
2022/11/04 11:28:04;;;;;;;7.45;1.23;;;16.60;99.90;;;;;;4994340;28;20239;-71
2022/11/04 11:30:42;;;;;;;4.30;1.10;;;16.60;99.90;;;;;;4988134;28;20559;-71
2022/11/04 11:33:20;;;;;;;2.28;1.08;;;16.60;99.90;;;;;;4992927;28;20222;-71
2022/11/04 11:35:54;;;;;;;3.95;1.25;;;16.50;99.90;;;;;;4994244;28;20242;-71
2022/11/04 11:38:26;;;;;;;3.33;1.15;;;16.50;99.90;;;;;;4987953;28;20747;-73
2022/11/04 11:41:07;;;;;;;3.55;1.20;;;16.50;99.90;;;;;;4994368;28;20218;-70
2022/11/04 11:43:41;;;;;;;5.30;1.25;;;16.50;99.90;;;;;;4993444;28;20191;-72
2022/11/04 11:46:14;;;;;;;4.43;1.20;;;16.50;99.90;;;;;;4988749;28;20196;-70
2022/11/04 11:48:52;;;;;;;6.28;1.33;;;16.50;99.90;;;;;;4988534;28;20199;-71
2022/11/04 11:51:28;;;;;;;2.15;1.00;;;16.40;99.90;;;;;;4992097;28;20206;-71
2022/11/04 11:54:18;;;;;;;6.85;1.10;;;16.40;99.90;;;;;;4988903;28;20187;-71
2022/11/04 11:56:53;;;;;;;2.85;1.17;;;16.40;99.90;;;;;;4987882;28;20215;-73
2022/11/04 11:59:33;;;;;;;2.35;1.10;;;16.40;99.90;;;;;;4994345;28;20233;-71
2022/11/04 12:02:24;;;;;;;6.25;1.52;;;16.40;99.90;;;;;;4994815;28;20187;-71
2022/11/04 12:04:56;;;;;;;4.07;1.10;;;16.30;99.90;;;;;;4994551;28;20382;-73
2022/11/04 12:07:37;;;;;;;3.78;1.17;;;16.30;99.90;;;;;;4987573;28;20192;-74
2022/11/04 12:10:21;;;;;;;3.60;1.17;;;16.30;99.90;;;;;;4994995;28;20196;-73
2022/11/04 12:13:03;;;;;;;4.63;1.27;;;16.30;99.90;;;;;;4992084;28;20196;-73
2022/11/04 12:15:46;;;;;;;6.53;1.42;;;16.30;99.90;;;;;;4991383;28;20231;-72
2022/11/04 12:18:40;;;;;;;3.92;1.30;;;16.30;99.90;;;;;;4989760;28;20560;-72
2022/11/04 12:21:18;;;;;;;6.78;1.35;;;16.20;99.90;;;;;;4994287;28;20799;-71
2022/11/04 12:23:55;;;;;;;6.75;1.10;;;16.20;99.90;;;;;;4993799;28;20659;-72
2022/11/04 12:26:35;;;;;;;6.22;1.10;;;16.20;99.90;;;;;;4993918;28;20192;-74
2022/11/04 12:29:26;;;;;;;4.78;1.20;;;16.20;99.90;;;;;;4994479;28;20198;-72
2022/11/04 12:32:06;;;;;;;3.92;1.20;;;16.10;99.90;;;;;;4993030;28;20239;-73
2022/11/04 12:34:49;;;;;;;5.72;1.38;;;16.10;99.90;;;;;;4990920;28;20249;-71
2022/11/04 12:37:27;;;;;;;3.50;1.02;;;16.00;99.90;;;;;;4989693;28;20187;-71
2022/11/04 12:40:12;;;;;;;4.60;1.23;;;16.00;99.90;;;;;;4993400;28;20289;-73
2022/11/04 12:42:56;;;;;;;3.92;1.30;;;16.00;99.90;;;;;;4992349;28;20200;-71
2022/11/04 12:45:36;;;;;;;4.85;1.20;;;16.00;99.90;;;;;;4994263;28;20214;-71
2022/11/04 12:48:11;;;;;;;4.70;1.35;;;15.90;99.90;;;;;;4989977;28;20244;-74
2022/11/04 12:51:00;;;;;;;5.25;1.38;;;15.90;99.90;;;;;;4992224;28;20203;-71
2022/11/04 12:53:50;;;;;;;3.90;1.50;;;15.90;99.90;;;;;;4991328;28;20211;-72
2022/11/04 12:56:22;;;;;;;2.15;1.20;;;15.90;99.90;;;;;;4982351;28;20203;-72
2022/11/04 12:59:27;;;;;;;5.03;1.33;;;15.90;99.90;;;;;;4991849;28;20192;-71
2022/11/04 13:02:01;;;;;;;4.93;1.65;;;15.80;99.90;;;;;;4984685;28;20655;-72
2022/11/04 13:04:36;;;;;;;5.82;1.48;;;15.80;99.90;;;;;;4988064;28;20561;-72
2022/11/04 13:07:15;;;;;;;6.80;1.27;;;15.80;99.90;;;;;;4991366;28;20199;-74
2022/11/04 13:09:50;;;;;;;4.43;1.65;;;15.70;99.90;;;;;;4990523;28;20262;-72
2022/11/04 13:12:24;;;;;;;5.07;1.63;;;15.70;99.90;;;;;;4991256;28;20544;-73
2022/11/04 13:14:58;;;;;;;4.47;1.63;;;15.70;99.90;;;;;;4989592;28;20215;-74
2022/11/04 13:17:32;;;;;;;5.78;1.60;;;15.60;99.90;;;;;;4988866;28;20199;-73
2022/11/04 13:20:06;;;;;;;6.13;1.60;;;15.60;99.90;;;;;;4992150;28;20221;-72
2022/11/04 13:22:40;;;;;;;4.20;1.40;;;15.60;99.90;;;;;;4989386;28;20208;-73
2022/11/04 13:25:19;;;;;;;5.10;1.45;;;15.60;99.90;;;;;;4991242;28;20229;-71
2022/11/04 13:27:50;;;;;;;3.03;1.50;;;15.60;99.90;;;;;;4988375;28;20278;-71
2022/11/04 13:30:24;;;;;;;5.35;1.35;;;15.50;99.90;;;;;;4990739;28;20200;-71
2022/11/04 13:33:00;;;;;;;2.53;1.20;;;15.50;99.90;;;;;;4988591;28;20254;-71
2022/11/04 13:35:35;;;;;;;5.03;1.42;;;15.50;99.90;;;;;;4991675;28;20215;-72
2022/11/04 13:38:11;;;;;;;5.65;1.67;;;15.50;99.90;;;;;;4991367;28;20195;-71
2022/11/04 13:40:50;;;;;;;6.35;1.38;;;15.50;99.90;;;;;;4990163;28;20238;-71
2022/11/04 13:43:41;;;;;;;6.15;1.40;;;15.50;99.90;;;;;;4988037;28;20675;-71
2022/11/04 13:46:29;;;;;;;3.55;1.45;;;15.50;99.90;;;;;;4990004;28;20203;-71
2022/11/04 13:49:07;;;;;;;4.28;1.67;;;15.40;99.90;;;;;;4988173;28;20198;-70
2022/11/04 13:51:41;;;;;;;4.78;1.70;;;15.40;99.90;;;;;;4992161;28;20513;-71
2022/11/04 13:54:30;;;;;;;2.38;1.50;;;15.40;99.90;;;;;;4992038;28;20658;-71
2022/11/04 13:57:13;;;;;;;5.60;1.77;;;15.40;99.90;;;;;;4991389;28;20250;-71
2022/11/04 14:00:05;;;;;;;5.78;1.42;;;15.40;99.90;;;;;;4987885;28;20199;-71